Galloway, United Kingdom
Current Conditions -  °F | °C
As of 2:20 PM on Saturday 20 Dec 2014 (Local Time) from EGPK Reporting Station
Scattered Clouds Scattered Clouds  
Wind Chill: 41°   Ceiling: Unl
Heat Index: 46°   Visibility: 6mi
Dew Point: 39°   Wind: 10mph
Humidity: 76%   Direction: 290°WNW
Pressure: 30.18"   Gusts: NA
Location:  55.05°N, 4.5°W
Report Text: EGPK 201420Z 29009KT 9999 SCT029 08/04 Q1022
Loading
Personal Weather Stations






























Interactive Weather Map New forecast layout! Learn more

10-Day Weather Forecast

Advertisements
Track Severe Weather on mobile